sensor_id;sensor_type;location;lat;lon;timestamp;temperature;humidity
49148;DHT22;41980;45.550;12.070;2022-07-23T00:04:22;28.10;46.30
49148;DHT22;41980;45.550;12.070;2022-07-23T00:10:24;28.00;46.40
49148;DHT22;41980;45.550;12.070;2022-07-23T00:16:26;28.00;46.60
49148;DHT22;41980;45.550;12.070;2022-07-23T00:22:28;28.00;47.40
49148;DHT22;41980;45.550;12.070;2022-07-23T00:28:31;28.00;47.80
49148;DHT22;41980;45.550;12.070;2022-07-23T00:34:33;27.90;47.40
49148;DHT22;41980;45.550;12.070;2022-07-23T00:40:36;27.80;47.20
49148;DHT22;41980;45.550;12.070;2022-07-23T00:46:50;27.80;47.00
49148;DHT22;41980;45.550;12.070;2022-07-23T00:52:55;27.70;47.40
49148;DHT22;41980;45.550;12.070;2022-07-23T00:58:57;27.60;48.10
49148;DHT22;41980;45.550;12.070;2022-07-23T01:05:00;27.50;47.70
49148;DHT22;41980;45.550;12.070;2022-07-23T01:11:02;27.50;48.50
49148;DHT22;41980;45.550;12.070;2022-07-23T01:17:06;27.40;48.10
49148;DHT22;41980;45.550;12.070;2022-07-23T01:23:08;27.30;48.00
49148;DHT22;41980;45.550;12.070;2022-07-23T01:29:13;27.30;50.00
49148;DHT22;41980;45.550;12.070;2022-07-23T01:35:17;27.10;49.30
49148;DHT22;41980;45.550;12.070;2022-07-23T01:41:19;26.90;49.30
49148;DHT22;41980;45.550;12.070;2022-07-23T01:47:22;26.90;49.60
49148;DHT22;41980;45.550;12.070;2022-07-23T01:53:27;26.90;49.60
49148;DHT22;41980;45.550;12.070;2022-07-23T01:59:30;26.80;49.80
49148;DHT22;41980;45.550;12.070;2022-07-23T02:05:32;26.70;50.30
49148;DHT22;41980;45.550;12.070;2022-07-23T02:11:37;26.60;50.50
49148;DHT22;41980;45.550;12.070;2022-07-23T02:17:39;26.50;52.00
49148;DHT22;41980;45.550;12.070;2022-07-23T02:23:45;26.50;50.50
49148;DHT22;41980;45.550;12.070;2022-07-23T02:29:49;26.30;50.10
49148;DHT22;41980;45.550;12.070;2022-07-23T02:35:52;26.20;50.30
49148;DHT22;41980;45.550;12.070;2022-07-23T02:41:55;26.10;50.80
49148;DHT22;41980;45.550;12.070;2022-07-23T02:47:59;26.10;50.10
49148;DHT22;41980;45.550;12.070;2022-07-23T02:54:02;26.00;50.00
49148;DHT22;41980;45.550;12.070;2022-07-23T03:00:05;25.90;50.30
49148;DHT22;41980;45.550;12.070;2022-07-23T03:06:08;25.80;50.00
49148;DHT22;41980;45.550;12.070;2022-07-23T03:12:10;25.80;50.00
49148;DHT22;41980;45.550;12.070;2022-07-23T03:18:12;25.70;50.50
49148;DHT22;41980;45.550;12.070;2022-07-23T03:24:14;25.70;50.20
49148;DHT22;41980;45.550;12.070;2022-07-23T03:30:16;25.70;53.00
49148;DHT22;41980;45.550;12.070;2022-07-23T03:36:38;25.50;51.40
49148;DHT22;41980;45.550;12.070;2022-07-23T03:42:41;25.50;51.10
49148;DHT22;41980;45.550;12.070;2022-07-23T03:48:46;25.60;50.80
49148;DHT22;41980;45.550;12.070;2022-07-23T03:54:49;25.50;50.60
49148;DHT22;41980;45.550;12.070;2022-07-23T04:00:51;25.50;51.10
49148;DHT22;41980;45.550;12.070;2022-07-23T04:06:57;25.60;50.90
49148;DHT22;41980;45.550;12.070;2022-07-23T04:12:59;25.80;50.50
49148;DHT22;41980;45.550;12.070;2022-07-23T04:19:01;26.00;50.90
49148;DHT22;41980;45.550;12.070;2022-07-23T04:25:11;26.10;51.10
49148;DHT22;41980;45.550;12.070;2022-07-23T04:31:15;26.30;51.10
49148;DHT22;41980;45.550;12.070;2022-07-23T04:37:17;26.50;51.80
49148;DHT22;41980;45.550;12.070;2022-07-23T04:43:20;26.50;51.50
49148;DHT22;41980;45.550;12.070;2022-07-23T04:49:24;26.50;51.90
49148;DHT22;41980;45.550;12.070;2022-07-23T04:55:26;26.80;51.50
49148;DHT22;41980;45.550;12.070;2022-07-23T05:01:28;27.00;51.70
49148;DHT22;41980;45.550;12.070;2022-07-23T05:07:30;27.20;51.00
49148;DHT22;41980;45.550;12.070;2022-07-23T05:13:32;27.50;51.60
49148;DHT22;41980;45.550;12.070;2022-07-23T05:19:35;28.00;51.30
49148;DHT22;41980;45.550;12.070;2022-07-23T05:25:37;29.00;50.20
49148;DHT22;41980;45.550;12.070;2022-07-23T05:31:39;30.00;49.30
49148;DHT22;41980;45.550;12.070;2022-07-23T05:37:42;31.00;48.60
49148;DHT22;41980;45.550;12.070;2022-07-23T05:43:44;31.50;48.20
49148;DHT22;41980;45.550;12.070;2022-07-23T05:49:47;32.00;47.90
49148;DHT22;41980;45.550;12.070;2022-07-23T05:55:52;32.60;47.50
49148;DHT22;41980;45.550;12.070;2022-07-23T06:01:54;33.10;46.60
49148;DHT22;41980;45.550;12.070;2022-07-23T06:07:57;33.10;46.70
49148;DHT22;41980;45.550;12.070;2022-07-23T06:14:03;33.20;46.70
49148;DHT22;41980;45.550;12.070;2022-07-23T06:20:20;34.00;46.00
49148;DHT22;41980;45.550;12.070;2022-07-23T06:26:22;35.00;45.30
49148;DHT22;41980;45.550;12.070;2022-07-23T06:32:24;36.00;44.20
49148;DHT22;41980;45.550;12.070;2022-07-23T06:38:27;36.70;43.60
49148;DHT22;41980;45.550;12.070;2022-07-23T06:44:32;36.80;43.50
49148;DHT22;41980;45.550;12.070;2022-07-23T06:50:35;37.40;43.00
49148;DHT22;41980;45.550;12.070;2022-07-23T06:56:37;38.10;42.30
49148;DHT22;41980;45.550;12.070;2022-07-23T07:02:39;38.90;41.20
49148;DHT22;41980;45.550;12.070;2022-07-23T07:08:41;39.40;41.10
49148;DHT22;41980;45.550;12.070;2022-07-23T07:14:44;40.00;40.50
49148;DHT22;41980;45.550;12.070;2022-07-23T07:20:46;40.40;40.00
49148;DHT22;41980;45.550;12.070;2022-07-23T07:26:48;40.10;38.50
49148;DHT22;41980;45.550;12.070;2022-07-23T07:32:51;40.00;39.40
49148;DHT22;41980;45.550;12.070;2022-07-23T07:38:54;40.10;39.60
49148;DHT22;41980;45.550;12.070;2022-07-23T07:44:55;40.70;39.00
49148;DHT22;41980;45.550;12.070;2022-07-23T07:50:57;40.90;38.10
49148;DHT22;41980;45.550;12.070;2022-07-23T07:56:59;41.20;37.90
49148;DHT22;41980;45.550;12.070;2022-07-23T08:03:01;41.50;36.50
49148;DHT22;41980;45.550;12.070;2022-07-23T08:09:03;41.50;36.50
49148;DHT22;41980;45.550;12.070;2022-07-23T08:15:06;41.40;35.40
49148;DHT22;41980;45.550;12.070;2022-07-23T08:21:09;41.60;35.20
49148;DHT22;41980;45.550;12.070;2022-07-23T08:27:11;41.90;34.40
49148;DHT22;41980;45.550;12.070;2022-07-23T08:33:15;42.00;33.60
49148;DHT22;41980;45.550;12.070;2022-07-23T08:39:17;42.20;33.60
49148;DHT22;41980;45.550;12.070;2022-07-23T08:45:22;42.40;33.20
49148;DHT22;41980;45.550;12.070;2022-07-23T08:51:26;42.50;32.50
49148;DHT22;41980;45.550;12.070;2022-07-23T08:57:28;42.40;30.80
49148;DHT22;41980;45.550;12.070;2022-07-23T09:03:32;42.80;32.70
49148;DHT22;41980;45.550;12.070;2022-07-23T09:09:35;42.80;31.40
49148;DHT22;41980;45.550;12.070;2022-07-23T09:15:48;42.20;29.70
49148;DHT22;41980;45.550;12.070;2022-07-23T09:21:51;42.50;31.00
49148;DHT22;41980;45.550;12.070;2022-07-23T09:27:57;42.70;30.50
49148;DHT22;41980;45.550;12.070;2022-07-23T09:40:10;42.30;30.30
49148;DHT22;41980;45.550;12.070;2022-07-23T09:52:27;42.10;29.60
49148;DHT22;41980;45.550;12.070;2022-07-23T09:58:30;42.50;29.20
49148;DHT22;41980;45.550;12.070;2022-07-23T10:04:33;42.40;29.00
49148;DHT22;41980;45.550;12.070;2022-07-23T10:10:39;42.40;28.90
49148;DHT22;41980;45.550;12.070;2022-07-23T10:17:03;41.80;28.80
49148;DHT22;41980;45.550;12.070;2022-07-23T10:47:37;40.80;29.70
49148;DHT22;41980;45.550;12.070;2022-07-23T11:06:07;39.30;30.20
49148;DHT22;41980;45.550;12.070;2022-07-23T11:18:14;39.00;30.00
49148;DHT22;41980;45.550;12.070;2022-07-23T11:24:17;38.60;28.70
49148;DHT22;41980;45.550;12.070;2022-07-23T11:36:28;38.40;29.60
49148;DHT22;41980;45.550;12.070;2022-07-23T11:42:32;38.10;28.90
49148;DHT22;41980;45.550;12.070;2022-07-23T11:48:34;38.00;29.20
49148;DHT22;41980;45.550;12.070;2022-07-23T11:54:49;37.90;29.20
49148;DHT22;41980;45.550;12.070;2022-07-23T12:00:51;37.60;29.50
49148;DHT22;41980;45.550;12.070;2022-07-23T12:06:54;37.40;29.70
49148;DHT22;41980;45.550;12.070;2022-07-23T12:12:59;37.10;30.10
49148;DHT22;41980;45.550;12.070;2022-07-23T12:19:02;37.10;30.30
49148;DHT22;41980;45.550;12.070;2022-07-23T12:25:07;37.40;30.20
49148;DHT22;41980;45.550;12.070;2022-07-23T12:31:10;37.80;30.20
49148;DHT22;41980;45.550;12.070;2022-07-23T12:49:29;37.80;30.40
49148;DHT22;41980;45.550;12.070;2022-07-23T12:55:31;37.60;30.70
49148;DHT22;41980;45.550;12.070;2022-07-23T13:01:36;37.40;31.20
49148;DHT22;41980;45.550;12.070;2022-07-23T13:07:38;37.30;31.70
49148;DHT22;41980;45.550;12.070;2022-07-23T13:13:41;37.10;31.80
49148;DHT22;41980;45.550;12.070;2022-07-23T13:19:43;37.00;32.10
49148;DHT22;41980;45.550;12.070;2022-07-23T13:25:45;36.90;32.40
49148;DHT22;41980;45.550;12.070;2022-07-23T13:31:48;36.90;32.50
49148;DHT22;41980;45.550;12.070;2022-07-23T13:37:51;36.90;32.70
49148;DHT22;41980;45.550;12.070;2022-07-23T13:43:53;36.80;32.60
49148;DHT22;41980;45.550;12.070;2022-07-23T13:49:54;36.60;32.70
49148;DHT22;41980;45.550;12.070;2022-07-23T13:55:57;36.50;32.70
49148;DHT22;41980;45.550;12.070;2022-07-23T14:01:59;36.40;32.70
49148;DHT22;41980;45.550;12.070;2022-07-23T14:08:01;36.40;32.50
49148;DHT22;41980;45.550;12.070;2022-07-23T14:14:03;36.40;32.30
49148;DHT22;41980;45.550;12.070;2022-07-23T14:20:07;36.40;32.20
49148;DHT22;41980;45.550;12.070;2022-07-23T14:26:09;36.40;32.10
49148;DHT22;41980;45.550;12.070;2022-07-23T14:32:11;36.40;31.90
49148;DHT22;41980;45.550;12.070;2022-07-23T14:38:13;36.40;32.00
49148;DHT22;41980;45.550;12.070;2022-07-23T14:44:15;36.40;31.90
49148;DHT22;41980;45.550;12.070;2022-07-23T14:50:17;36.30;31.80
49148;DHT22;41980;45.550;12.070;2022-07-23T14:56:20;36.40;31.70
49148;DHT22;41980;45.550;12.070;2022-07-23T15:02:22;36.40;30.70
49148;DHT22;41980;45.550;12.070;2022-07-23T15:08:25;36.30;31.40
49148;DHT22;41980;45.550;12.070;2022-07-23T15:14:27;36.30;31.40
49148;DHT22;41980;45.550;12.070;2022-07-23T15:20:29;36.30;31.40
49148;DHT22;41980;45.550;12.070;2022-07-23T15:26:31;36.30;31.50
49148;DHT22;41980;45.550;12.070;2022-07-23T15:32:33;36.30;31.40
49148;DHT22;41980;45.550;12.070;2022-07-23T15:38:35;36.30;31.40
49148;DHT22;41980;45.550;12.070;2022-07-23T15:44:37;36.10;31.30
49148;DHT22;41980;45.550;12.070;2022-07-23T15:50:40;35.90;31.60
49148;DHT22;41980;45.550;12.070;2022-07-23T15:56:42;35.60;31.80
49148;DHT22;41980;45.550;12.070;2022-07-23T16:02:44;35.50;31.70
49148;DHT22;41980;45.550;12.070;2022-07-23T16:08:46;35.50;31.60
49148;DHT22;41980;45.550;12.070;2022-07-23T16:14:48;35.40;31.60
49148;DHT22;41980;45.550;12.070;2022-07-23T16:20:51;35.40;31.70
49148;DHT22;41980;45.550;12.070;2022-07-23T16:26:53;35.40;31.80
49148;DHT22;41980;45.550;12.070;2022-07-23T16:32:55;35.30;31.90
49148;DHT22;41980;45.550;12.070;2022-07-23T16:38:58;35.20;32.10
49148;DHT22;41980;45.550;12.070;2022-07-23T16:45:00;35.10;32.20
49148;DHT22;41980;45.550;12.070;2022-07-23T16:51:03;35.20;32.30
49148;DHT22;41980;45.550;12.070;2022-07-23T16:57:06;35.10;32.40
49148;DHT22;41980;45.550;12.070;2022-07-23T17:03:08;35.20;32.50
49148;DHT22;41980;45.550;12.070;2022-07-23T17:09:10;35.20;32.50
49148;DHT22;41980;45.550;12.070;2022-07-23T17:15:14;35.20;32.50
49148;DHT22;41980;45.550;12.070;2022-07-23T17:21:16;35.20;32.60
49148;DHT22;41980;45.550;12.070;2022-07-23T17:27:20;35.00;32.80
49148;DHT22;41980;45.550;12.070;2022-07-23T17:33:22;34.90;33.10
49148;DHT22;41980;45.550;12.070;2022-07-23T17:39:24;34.80;33.20
49148;DHT22;41980;45.550;12.070;2022-07-23T17:45:27;34.60;33.50
49148;DHT22;41980;45.550;12.070;2022-07-23T17:51:29;34.40;33.60
49148;DHT22;41980;45.550;12.070;2022-07-23T17:57:31;34.20;33.70
49148;DHT22;41980;45.550;12.070;2022-07-23T18:03:33;34.10;34.00
49148;DHT22;41980;45.550;12.070;2022-07-23T18:09:37;33.90;34.20
49148;DHT22;41980;45.550;12.070;2022-07-23T18:15:39;33.80;34.50
49148;DHT22;41980;45.550;12.070;2022-07-23T18:21:41;33.70;34.80
49148;DHT22;41980;45.550;12.070;2022-07-23T18:27:43;33.50;35.30
49148;DHT22;41980;45.550;12.070;2022-07-23T18:33:45;33.30;35.90
49148;DHT22;41980;45.550;12.070;2022-07-23T18:39:47;33.00;37.50
49148;DHT22;41980;45.550;12.070;2022-07-23T18:45:49;32.90;37.30
49148;DHT22;41980;45.550;12.070;2022-07-23T18:51:51;32.70;37.60
49148;DHT22;41980;45.550;12.070;2022-07-23T18:57:56;32.50;38.40
49148;DHT22;41980;45.550;12.070;2022-07-23T19:04:03;32.40;39.50
49148;DHT22;41980;45.550;12.070;2022-07-23T19:10:07;32.20;39.70
49148;DHT22;41980;45.550;12.070;2022-07-23T19:16:09;32.10;41.50
49148;DHT22;41980;45.550;12.070;2022-07-23T19:22:12;32.00;41.80
49148;DHT22;41980;45.550;12.070;2022-07-23T19:28:14;31.90;42.20
49148;DHT22;41980;45.550;12.070;2022-07-23T19:34:17;31.80;42.40
49148;DHT22;41980;45.550;12.070;2022-07-23T19:40:20;31.80;42.60
49148;DHT22;41980;45.550;12.070;2022-07-23T19:46:24;31.70;43.20
49148;DHT22;41980;45.550;12.070;2022-07-23T19:52:28;31.70;43.70
49148;DHT22;41980;45.550;12.070;2022-07-23T19:58:29;31.50;45.60
49148;DHT22;41980;45.550;12.070;2022-07-23T20:04:31;31.50;44.80
49148;DHT22;41980;45.550;12.070;2022-07-23T20:10:33;31.40;44.70
49148;DHT22;41980;45.550;12.070;2022-07-23T20:16:36;31.40;46.60
49148;DHT22;41980;45.550;12.070;2022-07-23T20:22:38;31.20;45.90
49148;DHT22;41980;45.550;12.070;2022-07-23T20:28:40;31.10;47.10
49148;DHT22;41980;45.550;12.070;2022-07-23T20:34:42;31.00;48.30
49148;DHT22;41980;45.550;12.070;2022-07-23T20:40:44;30.90;47.90
49148;DHT22;41980;45.550;12.070;2022-07-23T20:46:46;30.80;49.00
49148;DHT22;41980;45.550;12.070;2022-07-23T20:52:48;30.80;49.40
49148;DHT22;41980;45.550;12.070;2022-07-23T20:58:50;30.70;49.90
49148;DHT22;41980;45.550;12.070;2022-07-23T21:04:54;30.50;50.00
49148;DHT22;41980;45.550;12.070;2022-07-23T21:10:56;30.50;53.00
49148;DHT22;41980;45.550;12.070;2022-07-23T21:17:00;30.30;52.70
49148;DHT22;41980;45.550;12.070;2022-07-23T21:23:02;30.20;53.50
49148;DHT22;41980;45.550;12.070;2022-07-23T21:29:04;30.10;53.60
49148;DHT22;41980;45.550;12.070;2022-07-23T21:35:08;30.00;56.00
49148;DHT22;41980;45.550;12.070;2022-07-23T21:41:10;29.80;57.30
49148;DHT22;41980;45.550;12.070;2022-07-23T21:47:15;29.70;58.30
49148;DHT22;41980;45.550;12.070;2022-07-23T21:53:17;29.60;58.90
49148;DHT22;41980;45.550;12.070;2022-07-23T21:59:19;29.50;58.50
49148;DHT22;41980;45.550;12.070;2022-07-23T22:05:22;29.50;58.70
49148;DHT22;41980;45.550;12.070;2022-07-23T22:11:24;29.40;59.90
49148;DHT22;41980;45.550;12.070;2022-07-23T22:17:26;29.40;60.60
49148;DHT22;41980;45.550;12.070;2022-07-23T22:23:28;29.20;61.10
49148;DHT22;41980;45.550;12.070;2022-07-23T22:29:30;29.10;61.70
49148;DHT22;41980;45.550;12.070;2022-07-23T22:35:32;29.10;61.10
49148;DHT22;41980;45.550;12.070;2022-07-23T22:41:34;29.10;61.00
49148;DHT22;41980;45.550;12.070;2022-07-23T22:47:36;29.10;60.50
49148;DHT22;41980;45.550;12.070;2022-07-23T22:53:38;29.00;59.30
49148;DHT22;41980;45.550;12.070;2022-07-23T22:59:41;29.10;57.50
49148;DHT22;41980;45.550;12.070;2022-07-23T23:05:43;29.10;53.10
49148;DHT22;41980;45.550;12.070;2022-07-23T23:11:45;29.00;51.10
49148;DHT22;41980;45.550;12.070;2022-07-23T23:17:47;29.00;50.90
49148;DHT22;41980;45.550;12.070;2022-07-23T23:23:49;28.90;50.80
49148;DHT22;41980;45.550;12.070;2022-07-23T23:29:51;28.70;50.40
49148;DHT22;41980;45.550;12.070;2022-07-23T23:35:53;28.50;49.90
49148;DHT22;41980;45.550;12.070;2022-07-23T23:41:55;28.40;50.00
49148;DHT22;41980;45.550;12.070;2022-07-23T23:47:57;28.30;49.70
49148;DHT22;41980;45.550;12.070;2022-07-23T23:53:59;28.10;49.60
